CheckWX is a tool to help pilots better visualize weather data.  It is not intended as a substitute for an official pre-flight weather briefing.

12:50:10 UTC

KREG METAR
Louisiana Regional Airport
Gonzales, Louisiana, USA
Current

15 mins ago

KREG 221235Z AUTO 00000KT 5SM BR SCT014 SCT021 BKN032 21/21 A3002 RMK AO2 T02100207
Observed
Feb-22 @ 12:35 UTC
Visibility
5 SM
Flight Rules
MVFR
Conditions
Mist
Cloud Levels
  • Scattered at 1,400' AGL
  • Scattered at 2,100' AGL
  • Broken at 3,200' AGL
Temperature
21°C / 70°F
Dewpoint
21°C / 70°F
Humidity
100%
Altimeter
30.02" Hg
Pressure
1016.62 hPa
Previous

35 mins ago

KREG 221215Z AUTO 00000KT 7SM SCT010 BKN015 BKN023 21/21 A3002 RMK AO2 T02110208
Observed
Feb-22 @ 12:15 UTC
Visibility
7 SM
Flight Rules
MVFR
Cloud Levels
  • Scattered at 1,000' AGL
  • Broken at 1,500' AGL
  • Broken at 2,300' AGL
Temperature
21°C / 70°F
Dewpoint
21°C / 70°F
Humidity
100%
Altimeter
30.02" Hg
Pressure
1016.62 hPa
Previous

55 mins ago

KREG 221155Z AUTO 00000KT 7SM OVC011 21/21 A3001 RMK AO2 70001 T02140210 10222 20214
Observed
Feb-22 @ 11:55 UTC
Visibility
7 SM
Flight Rules
MVFR
Cloud Levels
  • Overcast at 1,100' AGL
Temperature
21°C / 70°F
Dewpoint
21°C / 70°F
Humidity
100%
Altimeter
30.01" Hg
Pressure
1016.22 hPa